sensor_id;sensor_type;location;lat;lon;timestamp;P1;durP1;ratioP1;P2;durP2;ratioP2
29712;SDS011;16623;53.632;10.016;2023-04-25T00:00:05;12.00;;;4.47;;
29712;SDS011;16623;53.632;10.016;2023-04-25T00:02:32;7.60;;;5.15;;
29712;SDS011;16623;53.632;10.016;2023-04-25T00:04:59;11.50;;;6.20;;
29712;SDS011;16623;53.632;10.016;2023-04-25T00:07:26;13.90;;;6.00;;
29712;SDS011;16623;53.632;10.016;2023-04-25T00:09:52;17.27;;;5.68;;
29712;SDS011;16623;53.632;10.016;2023-04-25T00:12:17;16.67;;;6.00;;
29712;SDS011;16623;53.632;10.016;2023-04-25T00:14:43;18.08;;;5.20;;
29712;SDS011;16623;53.632;10.016;2023-04-25T00:17:10;19.95;;;6.28;;
29712;SDS011;16623;53.632;10.016;2023-04-25T00:19:36;15.75;;;5.65;;
29712;SDS011;16623;53.632;10.016;2023-04-25T00:22:03;14.73;;;5.38;;
29712;SDS011;16623;53.632;10.016;2023-04-25T00:24:28;14.60;;;5.40;;
29712;SDS011;16623;53.632;10.016;2023-04-25T00:26:54;24.20;;;5.85;;
29712;SDS011;16623;53.632;10.016;2023-04-25T00:29:20;15.73;;;5.63;;
29712;SDS011;16623;53.632;10.016;2023-04-25T00:31:45;22.98;;;6.60;;
29712;SDS011;16623;53.632;10.016;2023-04-25T00:34:11;31.77;;;5.70;;
29712;SDS011;16623;53.632;10.016;2023-04-25T00:36:36;21.23;;;6.00;;
29712;SDS011;16623;53.632;10.016;2023-04-25T00:39:03;20.05;;;5.68;;
29712;SDS011;16623;53.632;10.016;2023-04-25T00:41:29;18.13;;;4.07;;
29712;SDS011;16623;53.632;10.016;2023-04-25T00:43:55;29.92;;;4.97;;
29712;SDS011;16623;53.632;10.016;2023-04-25T00:46:22;18.85;;;4.55;;
29712;SDS011;16623;53.632;10.016;2023-04-25T00:48:48;34.85;;;6.53;;
29712;SDS011;16623;53.632;10.016;2023-04-25T00:51:15;27.92;;;5.35;;
29712;SDS011;16623;53.632;10.016;2023-04-25T00:53:44;28.38;;;4.97;;
29712;SDS011;16623;53.632;10.016;2023-04-25T00:56:10;32.38;;;4.93;;
29712;SDS011;16623;53.632;10.016;2023-04-25T00:58:35;27.17;;;4.90;;
29712;SDS011;16623;53.632;10.016;2023-04-25T01:01:02;32.47;;;4.70;;
29712;SDS011;16623;53.632;10.016;2023-04-25T01:03:27;26.25;;;4.80;;
29712;SDS011;16623;53.632;10.016;2023-04-25T01:05:55;24.30;;;6.10;;
29712;SDS011;16623;53.632;10.016;2023-04-25T01:08:22;24.48;;;4.32;;
29712;SDS011;16623;53.632;10.016;2023-04-25T01:10:50;33.75;;;6.20;;
29712;SDS011;16623;53.632;10.016;2023-04-25T01:13:16;34.10;;;6.50;;
29712;SDS011;16623;53.632;10.016;2023-04-25T01:15:41;31.48;;;5.47;;
29712;SDS011;16623;53.632;10.016;2023-04-25T01:18:07;21.13;;;4.65;;
29712;SDS011;16623;53.632;10.016;2023-04-25T01:20:33;38.45;;;5.32;;
29712;SDS011;16623;53.632;10.016;2023-04-25T01:23:03;26.77;;;5.75;;
29712;SDS011;16623;53.632;10.016;2023-04-25T01:25:29;28.30;;;4.85;;
29712;SDS011;16623;53.632;10.016;2023-04-25T01:27:55;29.33;;;5.78;;
29712;SDS011;16623;53.632;10.016;2023-04-25T01:30:22;30.33;;;6.90;;
29712;SDS011;16623;53.632;10.016;2023-04-25T01:32:50;37.45;;;5.65;;
29712;SDS011;16623;53.632;10.016;2023-04-25T01:35:17;43.85;;;6.72;;
29712;SDS011;16623;53.632;10.016;2023-04-25T01:37:43;25.30;;;5.53;;
29712;SDS011;16623;53.632;10.016;2023-04-25T01:40:10;25.92;;;4.63;;
29712;SDS011;16623;53.632;10.016;2023-04-25T01:42:37;36.97;;;6.55;;
29712;SDS011;16623;53.632;10.016;2023-04-25T01:45:03;28.05;;;5.68;;
29712;SDS011;16623;53.632;10.016;2023-04-25T01:47:29;21.27;;;4.35;;
29712;SDS011;16623;53.632;10.016;2023-04-25T01:49:55;23.13;;;5.15;;
29712;SDS011;16623;53.632;10.016;2023-04-25T01:52:21;30.13;;;5.80;;
29712;SDS011;16623;53.632;10.016;2023-04-25T01:54:47;30.67;;;5.20;;
29712;SDS011;16623;53.632;10.016;2023-04-25T01:57:13;40.30;;;5.57;;
29712;SDS011;16623;53.632;10.016;2023-04-25T01:59:39;36.47;;;6.00;;
29712;SDS011;16623;53.632;10.016;2023-04-25T02:02:05;33.08;;;5.63;;
29712;SDS011;16623;53.632;10.016;2023-04-25T02:04:31;30.92;;;4.30;;
29712;SDS011;16623;53.632;10.016;2023-04-25T02:06:57;29.42;;;4.75;;
29712;SDS011;16623;53.632;10.016;2023-04-25T02:09:23;27.00;;;5.50;;
29712;SDS011;16623;53.632;10.016;2023-04-25T02:11:48;27.35;;;4.90;;
29712;SDS011;16623;53.632;10.016;2023-04-25T02:14:14;31.02;;;4.70;;
29712;SDS011;16623;53.632;10.016;2023-04-25T02:16:40;24.80;;;4.95;;
29712;SDS011;16623;53.632;10.016;2023-04-25T02:19:05;23.25;;;4.70;;
29712;SDS011;16623;53.632;10.016;2023-04-25T02:21:31;26.48;;;4.95;;
29712;SDS011;16623;53.632;10.016;2023-04-25T02:23:57;30.05;;;4.88;;
29712;SDS011;16623;53.632;10.016;2023-04-25T02:26:23;29.27;;;3.97;;
29712;SDS011;16623;53.632;10.016;2023-04-25T02:28:49;25.70;;;4.82;;
29712;SDS011;16623;53.632;10.016;2023-04-25T02:31:15;22.80;;;4.22;;
29712;SDS011;16623;53.632;10.016;2023-04-25T02:33:41;32.58;;;5.82;;
29712;SDS011;16623;53.632;10.016;2023-04-25T02:36:06;29.83;;;5.20;;
29712;SDS011;16623;53.632;10.016;2023-04-25T02:38:32;18.25;;;4.78;;
29712;SDS011;16623;53.632;10.016;2023-04-25T02:40:59;30.65;;;4.85;;
29712;SDS011;16623;53.632;10.016;2023-04-25T02:43:25;24.02;;;4.65;;
29712;SDS011;16623;53.632;10.016;2023-04-25T02:45:50;22.02;;;5.35;;
29712;SDS011;16623;53.632;10.016;2023-04-25T02:48:16;31.08;;;4.88;;
29712;SDS011;16623;53.632;10.016;2023-04-25T02:50:41;32.10;;;4.68;;
29712;SDS011;16623;53.632;10.016;2023-04-25T02:53:07;38.75;;;4.90;;
29712;SDS011;16623;53.632;10.016;2023-04-25T02:55:33;20.67;;;4.60;;
29712;SDS011;16623;53.632;10.016;2023-04-25T02:57:58;25.13;;;5.53;;
29712;SDS011;16623;53.632;10.016;2023-04-25T03:00:24;21.92;;;4.05;;
29712;SDS011;16623;53.632;10.016;2023-04-25T03:02:50;25.25;;;4.70;;
29712;SDS011;16623;53.632;10.016;2023-04-25T03:05:16;22.52;;;5.80;;
29712;SDS011;16623;53.632;10.016;2023-04-25T03:07:42;19.55;;;4.03;;
29712;SDS011;16623;53.632;10.016;2023-04-25T03:10:08;18.05;;;4.00;;
29712;SDS011;16623;53.632;10.016;2023-04-25T03:12:35;16.50;;;3.78;;
29712;SDS011;16623;53.632;10.016;2023-04-25T03:15:00;22.35;;;4.25;;
29712;SDS011;16623;53.632;10.016;2023-04-25T03:17:26;32.05;;;4.90;;
29712;SDS011;16623;53.632;10.016;2023-04-25T03:19:52;33.30;;;5.00;;
29712;SDS011;16623;53.632;10.016;2023-04-25T03:22:17;23.58;;;4.63;;
29712;SDS011;16623;53.632;10.016;2023-04-25T03:24:43;36.63;;;4.57;;
29712;SDS011;16623;53.632;10.016;2023-04-25T03:27:09;18.17;;;4.18;;
29712;SDS011;16623;53.632;10.016;2023-04-25T03:29:34;27.23;;;5.07;;
29712;SDS011;16623;53.632;10.016;2023-04-25T03:32:00;33.25;;;6.50;;
29712;SDS011;16623;53.632;10.016;2023-04-25T03:34:26;24.60;;;4.40;;
29712;SDS011;16623;53.632;10.016;2023-04-25T03:36:51;23.42;;;4.47;;
29712;SDS011;16623;53.632;10.016;2023-04-25T03:39:17;24.42;;;5.03;;
29712;SDS011;16623;53.632;10.016;2023-04-25T03:41:42;27.52;;;4.35;;
29712;SDS011;16623;53.632;10.016;2023-04-25T03:44:08;39.17;;;4.68;;
29712;SDS011;16623;53.632;10.016;2023-04-25T03:46:33;26.15;;;4.90;;
29712;SDS011;16623;53.632;10.016;2023-04-25T03:48:59;33.33;;;5.68;;
29712;SDS011;16623;53.632;10.016;2023-04-25T03:51:24;26.23;;;4.93;;
29712;SDS011;16623;53.632;10.016;2023-04-25T03:53:51;23.05;;;5.75;;
29712;SDS011;16623;53.632;10.016;2023-04-25T03:56:17;18.98;;;3.85;;
29712;SDS011;16623;53.632;10.016;2023-04-25T03:58:43;28.50;;;5.40;;
29712;SDS011;16623;53.632;10.016;2023-04-25T04:01:08;23.38;;;4.60;;
29712;SDS011;16623;53.632;10.016;2023-04-25T04:03:34;31.98;;;5.03;;
29712;SDS011;16623;53.632;10.016;2023-04-25T04:06:01;17.40;;;4.28;;
29712;SDS011;16623;53.632;10.016;2023-04-25T04:08:29;23.95;;;4.15;;
29712;SDS011;16623;53.632;10.016;2023-04-25T04:10:55;18.05;;;4.32;;
29712;SDS011;16623;53.632;10.016;2023-04-25T04:13:20;25.20;;;3.75;;
29712;SDS011;16623;53.632;10.016;2023-04-25T04:15:46;26.45;;;5.07;;
29712;SDS011;16623;53.632;10.016;2023-04-25T04:18:11;22.33;;;3.75;;
29712;SDS011;16623;53.632;10.016;2023-04-25T04:20:37;23.02;;;5.43;;
29712;SDS011;16623;53.632;10.016;2023-04-25T04:23:03;23.20;;;4.53;;
29712;SDS011;16623;53.632;10.016;2023-04-25T04:25:30;17.73;;;3.75;;
29712;SDS011;16623;53.632;10.016;2023-04-25T04:27:56;13.02;;;5.55;;
29712;SDS011;16623;53.632;10.016;2023-04-25T04:30:22;21.42;;;3.63;;
29712;SDS011;16623;53.632;10.016;2023-04-25T04:32:49;19.48;;;3.50;;
29712;SDS011;16623;53.632;10.016;2023-04-25T04:35:15;20.58;;;4.95;;
29712;SDS011;16623;53.632;10.016;2023-04-25T04:37:40;15.57;;;3.90;;
29712;SDS011;16623;53.632;10.016;2023-04-25T04:40:06;14.98;;;4.70;;
29712;SDS011;16623;53.632;10.016;2023-04-25T04:42:32;20.27;;;3.80;;
29712;SDS011;16623;53.632;10.016;2023-04-25T04:44:58;24.27;;;3.83;;
29712;SDS011;16623;53.632;10.016;2023-04-25T04:47:26;20.98;;;4.32;;
29712;SDS011;16623;53.632;10.016;2023-04-25T04:49:55;27.65;;;3.70;;
29712;SDS011;16623;53.632;10.016;2023-04-25T04:52:21;24.20;;;4.03;;
29712;SDS011;16623;53.632;10.016;2023-04-25T04:54:46;18.13;;;3.47;;
29712;SDS011;16623;53.632;10.016;2023-04-25T04:57:12;21.48;;;4.93;;
29712;SDS011;16623;53.632;10.016;2023-04-25T04:59:37;16.15;;;3.03;;
29712;SDS011;16623;53.632;10.016;2023-04-25T05:02:03;15.50;;;3.42;;
29712;SDS011;16623;53.632;10.016;2023-04-25T05:04:28;24.45;;;4.28;;
29712;SDS011;16623;53.632;10.016;2023-04-25T05:06:54;21.77;;;3.88;;
29712;SDS011;16623;53.632;10.016;2023-04-25T05:09:20;24.10;;;4.55;;
29712;SDS011;16623;53.632;10.016;2023-04-25T05:11:45;10.48;;;2.58;;
29712;SDS011;16623;53.632;10.016;2023-04-25T05:14:11;19.30;;;3.25;;
29712;SDS011;16623;53.632;10.016;2023-04-25T05:16:36;27.33;;;5.55;;
29712;SDS011;16623;53.632;10.016;2023-04-25T05:19:02;15.10;;;3.58;;
29712;SDS011;16623;53.632;10.016;2023-04-25T05:21:27;21.08;;;4.13;;
29712;SDS011;16623;53.632;10.016;2023-04-25T05:23:53;27.02;;;4.95;;
29712;SDS011;16623;53.632;10.016;2023-04-25T05:26:19;12.68;;;3.15;;
29712;SDS011;16623;53.632;10.016;2023-04-25T05:28:45;20.45;;;4.45;;
29712;SDS011;16623;53.632;10.016;2023-04-25T05:31:12;21.52;;;4.25;;
29712;SDS011;16623;53.632;10.016;2023-04-25T05:33:38;16.75;;;4.03;;
29712;SDS011;16623;53.632;10.016;2023-04-25T05:36:04;20.08;;;2.67;;
29712;SDS011;16623;53.632;10.016;2023-04-25T05:38:29;13.93;;;3.33;;
29712;SDS011;16623;53.632;10.016;2023-04-25T05:40:55;14.45;;;3.25;;
29712;SDS011;16623;53.632;10.016;2023-04-25T05:43:20;17.45;;;3.22;;
29712;SDS011;16623;53.632;10.016;2023-04-25T05:45:46;16.92;;;3.50;;
29712;SDS011;16623;53.632;10.016;2023-04-25T05:48:11;18.33;;;3.25;;
29712;SDS011;16623;53.632;10.016;2023-04-25T05:50:37;17.35;;;4.63;;
29712;SDS011;16623;53.632;10.016;2023-04-25T05:53:03;18.48;;;3.83;;
29712;SDS011;16623;53.632;10.016;2023-04-25T05:55:30;16.02;;;3.13;;
29712;SDS011;16623;53.632;10.016;2023-04-25T05:57:56;22.30;;;3.63;;
29712;SDS011;16623;53.632;10.016;2023-04-25T06:00:24;26.33;;;4.03;;
29712;SDS011;16623;53.632;10.016;2023-04-25T06:02:50;21.25;;;4.38;;
29712;SDS011;16623;53.632;10.016;2023-04-25T06:05:15;16.73;;;3.28;;
29712;SDS011;16623;53.632;10.016;2023-04-25T06:07:41;17.85;;;3.50;;
29712;SDS011;16623;53.632;10.016;2023-04-25T06:10:07;19.20;;;3.88;;
29712;SDS011;16623;53.632;10.016;2023-04-25T06:12:33;19.73;;;3.58;;
29712;SDS011;16623;53.632;10.016;2023-04-25T06:14:59;18.42;;;3.75;;
29712;SDS011;16623;53.632;10.016;2023-04-25T06:17:25;18.65;;;4.20;;
29712;SDS011;16623;53.632;10.016;2023-04-25T06:19:50;22.17;;;3.75;;
29712;SDS011;16623;53.632;10.016;2023-04-25T06:22:16;14.35;;;3.22;;
29712;SDS011;16623;53.632;10.016;2023-04-25T06:24:41;13.10;;;3.55;;
29712;SDS011;16623;53.632;10.016;2023-04-25T06:27:07;15.05;;;3.50;;
29712;SDS011;16623;53.632;10.016;2023-04-25T06:29:32;14.68;;;3.22;;
29712;SDS011;16623;53.632;10.016;2023-04-25T06:31:58;21.58;;;3.72;;
29712;SDS011;16623;53.632;10.016;2023-04-25T06:34:24;10.00;;;2.63;;
29712;SDS011;16623;53.632;10.016;2023-04-25T06:36:50;19.33;;;5.07;;
29712;SDS011;16623;53.632;10.016;2023-04-25T06:39:15;18.52;;;4.45;;
29712;SDS011;16623;53.632;10.016;2023-04-25T06:41:41;22.90;;;4.07;;
29712;SDS011;16623;53.632;10.016;2023-04-25T06:44:07;24.40;;;4.75;;
29712;SDS011;16623;53.632;10.016;2023-04-25T06:46:32;22.63;;;3.88;;
29712;SDS011;16623;53.632;10.016;2023-04-25T06:48:58;23.50;;;4.32;;
29712;SDS011;16623;53.632;10.016;2023-04-25T06:51:23;15.70;;;3.05;;
29712;SDS011;16623;53.632;10.016;2023-04-25T06:53:49;20.80;;;5.15;;
29712;SDS011;16623;53.632;10.016;2023-04-25T06:56:15;13.88;;;3.42;;
29712;SDS011;16623;53.632;10.016;2023-04-25T06:58:41;18.02;;;3.55;;
29712;SDS011;16623;53.632;10.016;2023-04-25T07:01:06;17.65;;;3.95;;
29712;SDS011;16623;53.632;10.016;2023-04-25T07:03:32;15.40;;;2.72;;
29712;SDS011;16623;53.632;10.016;2023-04-25T07:05:58;19.38;;;2.75;;
29712;SDS011;16623;53.632;10.016;2023-04-25T07:08:23;19.05;;;3.60;;
29712;SDS011;16623;53.632;10.016;2023-04-25T07:10:48;15.23;;;3.53;;
29712;SDS011;16623;53.632;10.016;2023-04-25T07:13:14;13.93;;;2.90;;
29712;SDS011;16623;53.632;10.016;2023-04-25T07:15:40;13.52;;;4.72;;
29712;SDS011;16623;53.632;10.016;2023-04-25T07:18:06;15.32;;;3.40;;
29712;SDS011;16623;53.632;10.016;2023-04-25T07:20:31;16.40;;;3.00;;
29712;SDS011;16623;53.632;10.016;2023-04-25T07:22:57;12.43;;;3.00;;
29712;SDS011;16623;53.632;10.016;2023-04-25T07:25:23;9.55;;;2.72;;
29712;SDS011;16623;53.632;10.016;2023-04-25T07:27:48;13.20;;;3.42;;
29712;SDS011;16623;53.632;10.016;2023-04-25T07:30:14;11.80;;;2.58;;
29712;SDS011;16623;53.632;10.016;2023-04-25T07:32:39;15.70;;;3.08;;
29712;SDS011;16623;53.632;10.016;2023-04-25T07:35:05;9.40;;;3.30;;
29712;SDS011;16623;53.632;10.016;2023-04-25T07:37:32;19.90;;;3.85;;
29712;SDS011;16623;53.632;10.016;2023-04-25T07:39:58;13.80;;;2.80;;
29712;SDS011;16623;53.632;10.016;2023-04-25T07:42:24;15.32;;;3.17;;
29712;SDS011;16623;53.632;10.016;2023-04-25T07:44:50;12.10;;;2.67;;
29712;SDS011;16623;53.632;10.016;2023-04-25T07:47:16;15.70;;;4.53;;
29712;SDS011;16623;53.632;10.016;2023-04-25T07:49:44;14.10;;;3.20;;
29712;SDS011;16623;53.632;10.016;2023-04-25T07:52:10;15.35;;;3.00;;
29712;SDS011;16623;53.632;10.016;2023-04-25T07:54:36;18.45;;;3.17;;
29712;SDS011;16623;53.632;10.016;2023-04-25T07:57:01;8.98;;;2.42;;
29712;SDS011;16623;53.632;10.016;2023-04-25T07:59:27;8.77;;;2.33;;
29712;SDS011;16623;53.632;10.016;2023-04-25T08:01:53;22.60;;;4.25;;
29712;SDS011;16623;53.632;10.016;2023-04-25T08:04:19;23.10;;;3.38;;
29712;SDS011;16623;53.632;10.016;2023-04-25T08:06:44;17.33;;;3.38;;
29712;SDS011;16623;53.632;10.016;2023-04-25T08:09:10;14.90;;;4.88;;
29712;SDS011;16623;53.632;10.016;2023-04-25T08:11:36;13.80;;;4.00;;
29712;SDS011;16623;53.632;10.016;2023-04-25T08:14:02;18.70;;;3.88;;
29712;SDS011;16623;53.632;10.016;2023-04-25T08:16:27;7.72;;;2.08;;
29712;SDS011;16623;53.632;10.016;2023-04-25T08:18:53;14.93;;;2.67;;
29712;SDS011;16623;53.632;10.016;2023-04-25T08:21:19;6.50;;;2.20;;
29712;SDS011;16623;53.632;10.016;2023-04-25T08:23:45;7.82;;;1.92;;
29712;SDS011;16623;53.632;10.016;2023-04-25T08:26:11;12.52;;;3.50;;
29712;SDS011;16623;53.632;10.016;2023-04-25T08:28:37;12.63;;;2.60;;
29712;SDS011;16623;53.632;10.016;2023-04-25T08:31:03;6.22;;;1.80;;
29712;SDS011;16623;53.632;10.016;2023-04-25T08:33:29;9.00;;;2.17;;
29712;SDS011;16623;53.632;10.016;2023-04-25T08:35:55;10.75;;;2.35;;
29712;SDS011;16623;53.632;10.016;2023-04-25T08:38:20;10.63;;;2.30;;
29712;SDS011;16623;53.632;10.016;2023-04-25T08:40:48;13.93;;;2.60;;
29712;SDS011;16623;53.632;10.016;2023-04-25T08:43:15;17.98;;;2.40;;
29712;SDS011;16623;53.632;10.016;2023-04-25T08:45:45;13.20;;;2.67;;
29712;SDS011;16623;53.632;10.016;2023-04-25T08:48:12;14.10;;;3.10;;
29712;SDS011;16623;53.632;10.016;2023-04-25T08:53:17;14.93;;;3.38;;
29712;SDS011;16623;53.632;10.016;2023-04-25T08:55:50;22.10;;;2.30;;
29712;SDS011;16623;53.632;10.016;2023-04-25T08:58:16;14.45;;;2.92;;
29712;SDS011;16623;53.632;10.016;2023-04-25T09:00:43;18.52;;;3.50;;
29712;SDS011;16623;53.632;10.016;2023-04-25T09:03:10;16.55;;;2.58;;
29712;SDS011;16623;53.632;10.016;2023-04-25T09:05:36;12.63;;;2.55;;
29712;SDS011;16623;53.632;10.016;2023-04-25T09:08:02;15.07;;;2.50;;
29712;SDS011;16623;53.632;10.016;2023-04-25T09:10:28;14.38;;;2.50;;
29712;SDS011;16623;53.632;10.016;2023-04-25T09:13:03;12.75;;;2.80;;
29712;SDS011;16623;53.632;10.016;2023-04-25T09:15:48;17.02;;;3.00;;
29712;SDS011;16623;53.632;10.016;2023-04-25T09:18:28;13.23;;;2.30;;
29712;SDS011;16623;53.632;10.016;2023-04-25T09:20:55;10.98;;;1.85;;
29712;SDS011;16623;53.632;10.016;2023-04-25T09:23:23;8.10;;;2.28;;
29712;SDS011;16623;53.632;10.016;2023-04-25T09:25:49;18.65;;;2.78;;
29712;SDS011;16623;53.632;10.016;2023-04-25T09:28:22;14.50;;;2.40;;
29712;SDS011;16623;53.632;10.016;2023-04-25T09:30:53;16.35;;;3.10;;
29712;SDS011;16623;53.632;10.016;2023-04-25T09:33:23;10.88;;;2.42;;
29712;SDS011;16623;53.632;10.016;2023-04-25T09:36:04;9.75;;;3.13;;
29712;SDS011;16623;53.632;10.016;2023-04-25T09:38:32;8.82;;;2.20;;
29712;SDS011;16623;53.632;10.016;2023-04-25T09:41:11;9.30;;;2.83;;
29712;SDS011;16623;53.632;10.016;2023-04-25T09:43:38;8.50;;;2.35;;
29712;SDS011;16623;53.632;10.016;2023-04-25T09:46:07;13.25;;;2.97;;
29712;SDS011;16623;53.632;10.016;2023-04-25T09:48:34;6.22;;;2.42;;
29712;SDS011;16623;53.632;10.016;2023-04-25T09:53:42;11.13;;;2.63;;
29712;SDS011;16623;53.632;10.016;2023-04-25T09:56:09;10.45;;;1.90;;
29712;SDS011;16623;53.632;10.016;2023-04-25T09:58:37;15.32;;;2.50;;
29712;SDS011;16623;53.632;10.016;2023-04-25T10:01:07;11.60;;;2.17;;
29712;SDS011;16623;53.632;10.016;2023-04-25T10:03:34;12.35;;;3.80;;
29712;SDS011;16623;53.632;10.016;2023-04-25T10:06:02;8.73;;;2.03;;
29712;SDS011;16623;53.632;10.016;2023-04-25T10:08:34;12.73;;;2.53;;
29712;SDS011;16623;53.632;10.016;2023-04-25T10:11:02;8.30;;;1.83;;
29712;SDS011;16623;53.632;10.016;2023-04-25T10:13:33;8.93;;;2.10;;
29712;SDS011;16623;53.632;10.016;2023-04-25T10:16:00;8.73;;;2.38;;
29712;SDS011;16623;53.632;10.016;2023-04-25T10:18:27;9.18;;;2.05;;
29712;SDS011;16623;53.632;10.016;2023-04-25T10:20:54;9.57;;;1.80;;
29712;SDS011;16623;53.632;10.016;2023-04-25T10:23:21;10.88;;;1.80;;
29712;SDS011;16623;53.632;10.016;2023-04-25T10:25:48;5.28;;;1.70;;
29712;SDS011;16623;53.632;10.016;2023-04-25T10:28:16;12.60;;;2.10;;
29712;SDS011;16623;53.632;10.016;2023-04-25T10:30:57;6.10;;;2.80;;
29712;SDS011;16623;53.632;10.016;2023-04-25T10:33:34;10.25;;;1.98;;
29712;SDS011;16623;53.632;10.016;2023-04-25T10:36:13;10.80;;;2.17;;
29712;SDS011;16623;53.632;10.016;2023-04-25T10:38:42;12.27;;;3.60;;
29712;SDS011;16623;53.632;10.016;2023-04-25T10:41:10;13.65;;;1.88;;
29712;SDS011;16623;53.632;10.016;2023-04-25T10:43:38;7.97;;;1.90;;
29712;SDS011;16623;53.632;10.016;2023-04-25T10:51:24;10.77;;;2.78;;
29712;SDS011;16623;53.632;10.016;2023-04-25T10:56:25;14.90;;;1.90;;
29712;SDS011;16623;53.632;10.016;2023-04-25T10:58:52;7.55;;;2.47;;
29712;SDS011;16623;53.632;10.016;2023-04-25T11:01:38;9.15;;;2.03;;
29712;SDS011;16623;53.632;10.016;2023-04-25T11:04:06;9.23;;;2.03;;
29712;SDS011;16623;53.632;10.016;2023-04-25T11:09:26;10.50;;;2.25;;
29712;SDS011;16623;53.632;10.016;2023-04-25T11:11:53;14.85;;;2.33;;
29712;SDS011;16623;53.632;10.016;2023-04-25T11:14:20;7.43;;;1.50;;
29712;SDS011;16623;53.632;10.016;2023-04-25T11:16:53;7.15;;;1.52;;
29712;SDS011;16623;53.632;10.016;2023-04-25T11:19:22;7.70;;;1.58;;
29712;SDS011;16623;53.632;10.016;2023-04-25T11:21:49;5.75;;;1.10;;
29712;SDS011;16623;53.632;10.016;2023-04-25T11:24:18;8.05;;;1.65;;
29712;SDS011;16623;53.632;10.016;2023-04-25T11:26:46;8.77;;;1.75;;
29712;SDS011;16623;53.632;10.016;2023-04-25T11:29:13;5.95;;;1.70;;
29712;SDS011;16623;53.632;10.016;2023-04-25T11:31:38;6.72;;;1.90;;
29712;SDS011;16623;53.632;10.016;2023-04-25T11:34:07;10.63;;;1.88;;
29712;SDS011;16623;53.632;10.016;2023-04-25T11:36:33;15.95;;;3.47;;
29712;SDS011;16623;53.632;10.016;2023-04-25T11:38:58;8.77;;;1.90;;
29712;SDS011;16623;53.632;10.016;2023-04-25T11:41:25;8.07;;;1.50;;
29712;SDS011;16623;53.632;10.016;2023-04-25T11:43:51;8.45;;;1.85;;
29712;SDS011;16623;53.632;10.016;2023-04-25T11:46:16;13.43;;;3.70;;
29712;SDS011;16623;53.632;10.016;2023-04-25T11:48:44;10.50;;;1.70;;
29712;SDS011;16623;53.632;10.016;2023-04-25T11:51:10;20.25;;;4.07;;
29712;SDS011;16623;53.632;10.016;2023-04-25T11:53:36;13.93;;;3.05;;
29712;SDS011;16623;53.632;10.016;2023-04-25T11:56:09;7.68;;;2.42;;
29712;SDS011;16623;53.632;10.016;2023-04-25T12:01:27;7.83;;;1.43;;
29712;SDS011;16623;53.632;10.016;2023-04-25T12:04:16;7.90;;;1.73;;
29712;SDS011;16623;53.632;10.016;2023-04-25T12:06:52;4.55;;;1.25;;
29712;SDS011;16623;53.632;10.016;2023-04-25T12:09:20;12.85;;;1.92;;
29712;SDS011;16623;53.632;10.016;2023-04-25T12:11:53;7.97;;;2.15;;
29712;SDS011;16623;53.632;10.016;2023-04-25T12:14:24;4.38;;;1.73;;
29712;SDS011;16623;53.632;10.016;2023-04-25T12:16:52;9.88;;;2.38;;
29712;SDS011;16623;53.632;10.016;2023-04-25T12:19:19;8.25;;;1.40;;
29712;SDS011;16623;53.632;10.016;2023-04-25T12:21:46;14.27;;;1.88;;
29712;SDS011;16623;53.632;10.016;2023-04-25T12:24:13;9.70;;;1.48;;
29712;SDS011;16623;53.632;10.016;2023-04-25T12:26:49;8.88;;;1.65;;
29712;SDS011;16623;53.632;10.016;2023-04-25T12:29:22;9.80;;;1.85;;
29712;SDS011;16623;53.632;10.016;2023-04-25T12:31:50;6.22;;;1.35;;
29712;SDS011;16623;53.632;10.016;2023-04-25T12:34:17;10.40;;;1.52;;
29712;SDS011;16623;53.632;10.016;2023-04-25T12:36:46;6.03;;;1.90;;
29712;SDS011;16623;53.632;10.016;2023-04-25T12:39:15;9.60;;;1.63;;
29712;SDS011;16623;53.632;10.016;2023-04-25T12:41:42;8.52;;;2.50;;
29712;SDS011;16623;53.632;10.016;2023-04-25T12:44:08;6.07;;;1.63;;
29712;SDS011;16623;53.632;10.016;2023-04-25T12:46:34;8.23;;;1.95;;
29712;SDS011;16623;53.632;10.016;2023-04-25T12:49:01;5.68;;;1.45;;
29712;SDS011;16623;53.632;10.016;2023-04-25T12:51:28;8.00;;;1.70;;
29712;SDS011;16623;53.632;10.016;2023-04-25T12:53:54;9.48;;;1.70;;
29712;SDS011;16623;53.632;10.016;2023-04-25T12:56:19;8.00;;;2.05;;
29712;SDS011;16623;53.632;10.016;2023-04-25T12:58:45;8.82;;;2.10;;
29712;SDS011;16623;53.632;10.016;2023-04-25T13:01:11;6.32;;;1.85;;
29712;SDS011;16623;53.632;10.016;2023-04-25T13:03:42;6.28;;;1.48;;
29712;SDS011;16623;53.632;10.016;2023-04-25T13:06:07;7.50;;;2.05;;
29712;SDS011;16623;53.632;10.016;2023-04-25T13:08:33;10.15;;;1.90;;
29712;SDS011;16623;53.632;10.016;2023-04-25T13:10:59;6.95;;;1.98;;
29712;SDS011;16623;53.632;10.016;2023-04-25T13:13:25;11.18;;;1.85;;
29712;SDS011;16623;53.632;10.016;2023-04-25T13:15:52;12.50;;;2.47;;
29712;SDS011;16623;53.632;10.016;2023-04-25T13:18:18;8.20;;;1.55;;
29712;SDS011;16623;53.632;10.016;2023-04-25T13:20:44;8.52;;;1.85;;
29712;SDS011;16623;53.632;10.016;2023-04-25T13:23:11;6.95;;;1.70;;
29712;SDS011;16623;53.632;10.016;2023-04-25T13:25:36;11.68;;;2.28;;
29712;SDS011;16623;53.632;10.016;2023-04-25T13:28:02;10.70;;;2.58;;
29712;SDS011;16623;53.632;10.016;2023-04-25T13:30:28;11.57;;;2.38;;
29712;SDS011;16623;53.632;10.016;2023-04-25T13:32:54;9.63;;;1.98;;
29712;SDS011;16623;53.632;10.016;2023-04-25T13:35:21;7.22;;;1.70;;
29712;SDS011;16623;53.632;10.016;2023-04-25T13:37:47;4.57;;;1.67;;
29712;SDS011;16623;53.632;10.016;2023-04-25T13:40:13;6.78;;;1.70;;
29712;SDS011;16623;53.632;10.016;2023-04-25T13:42:38;16.85;;;2.05;;
29712;SDS011;16623;53.632;10.016;2023-04-25T13:45:05;3.63;;;1.60;;
29712;SDS011;16623;53.632;10.016;2023-04-25T13:47:31;8.93;;;1.73;;
29712;SDS011;16623;53.632;10.016;2023-04-25T13:49:57;5.45;;;1.60;;
29712;SDS011;16623;53.632;10.016;2023-04-25T13:52:23;8.20;;;1.85;;
29712;SDS011;16623;53.632;10.016;2023-04-25T13:54:52;9.65;;;1.48;;
29712;SDS011;16623;53.632;10.016;2023-04-25T13:57:17;15.07;;;2.42;;
29712;SDS011;16623;53.632;10.016;2023-04-25T13:59:43;9.75;;;2.10;;
29712;SDS011;16623;53.632;10.016;2023-04-25T14:02:08;10.48;;;2.35;;
29712;SDS011;16623;53.632;10.016;2023-04-25T14:04:34;13.35;;;2.22;;
29712;SDS011;16623;53.632;10.016;2023-04-25T14:07:00;7.60;;;2.10;;
29712;SDS011;16623;53.632;10.016;2023-04-25T14:09:27;9.75;;;1.75;;
29712;SDS011;16623;53.632;10.016;2023-04-25T14:11:52;10.40;;;2.00;;
29712;SDS011;16623;53.632;10.016;2023-04-25T14:14:18;9.35;;;2.03;;
29712;SDS011;16623;53.632;10.016;2023-04-25T14:16:44;11.27;;;2.25;;
29712;SDS011;16623;53.632;10.016;2023-04-25T14:19:10;8.27;;;1.92;;
29712;SDS011;16623;53.632;10.016;2023-04-25T14:21:36;14.52;;;1.80;;
29712;SDS011;16623;53.632;10.016;2023-04-25T14:24:02;10.32;;;2.15;;
29712;SDS011;16623;53.632;10.016;2023-04-25T14:26:29;12.55;;;2.45;;
29712;SDS011;16623;53.632;10.016;2023-04-25T14:28:55;10.50;;;1.67;;
29712;SDS011;16623;53.632;10.016;2023-04-25T14:31:21;31.75;;;3.90;;
29712;SDS011;16623;53.632;10.016;2023-04-25T14:33:47;9.95;;;1.92;;
29712;SDS011;16623;53.632;10.016;2023-04-25T14:36:12;7.30;;;1.83;;
29712;SDS011;16623;53.632;10.016;2023-04-25T14:38:39;9.15;;;2.08;;